Time;durP1;ratioP1;P1;durP2;ratioP2;P2;SDS_P1;SDS_P2;PMS_P1;PMS_P2;Temp;Humidity;BMP_temperature;BMP_pressure;BME280_temperature;BME280_humidity;BME280_pressure;Samples;Min_cycle;Max_cycle;Signal;HPM_P1;HPM_P2
2021/12/13 00:01:35;;;;;;;21.55;13.27;;;;;;;14.31;66.04;102420.06;4934757;28;123928;-70
2021/12/13 00:04:06;;;;;;;22.15;12.75;;;;;;;14.31;66.25;102422.75;4941708;28;123559;-70
2021/12/13 00:06:46;;;;;;;25.10;13.57;;;;;;;14.31;66.17;102420.94;4935848;28;119579;-70
2021/12/13 00:09:17;;;;;;;21.70;13.32;;;;;;;14.32;66.09;102419.16;4942270;28;119697;-70
2021/12/13 00:11:47;;;;;;;22.33;13.13;;;;;;;14.32;66.17;102411.16;4930847;28;124032;-70
2021/12/13 00:14:36;;;;;;;23.73;13.45;;;;;;;14.31;66.17;102409.41;4933475;28;124039;-70
2021/12/13 00:17:10;;;;;;;24.60;12.90;;;;;;;14.30;65.99;102407.69;4936516;28;119347;-70
2021/12/13 00:19:43;;;;;;;22.58;12.27;;;;;;;14.30;66.06;102407.69;4941699;28;119003;-69
2021/12/13 00:22:15;;;;;;;22.63;12.68;;;;;;;14.30;66.04;102413.88;4935357;28;124736;-69
2021/12/13 00:24:44;;;;;;;24.38;12.80;;;;;;;14.31;65.97;102420.06;4939777;28;123768;-69
2021/12/13 00:27:15;;;;;;;22.30;13.05;;;;;;;14.30;66.06;102418.34;4944800;28;120465;-69
2021/12/13 00:29:54;;;;;;;20.23;12.38;;;;;;;14.31;65.96;102422.75;4928952;28;118595;-70
2021/12/13 00:32:33;;;;;;;21.08;12.57;;;;;;;14.29;65.94;102414.78;4940702;28;124654;-70
2021/12/13 00:35:05;;;;;;;24.45;12.75;;;;;;;14.28;65.97;102426.41;4943967;28;123835;-69
2021/12/13 00:37:42;;;;;;;22.52;13.15;;;;;;;14.26;65.95;102438.00;4933805;28;119305;-69
2021/12/13 00:40:24;;;;;;;21.67;12.90;;;;;;;14.23;66.03;102432.81;4938697;28;118558;-69
2021/12/13 00:43:03;;;;;;;19.75;11.48;;;;;;;14.21;66.01;102441.72;4938402;28;124135;-69
2021/12/13 00:45:34;;;;;;;21.10;12.13;;;;;;;14.19;65.99;102446.22;4937170;28;124316;-69
2021/12/13 00:48:04;;;;;;;19.20;12.32;;;;;;;14.17;66.07;102450.75;4941825;28;119212;-69
2021/12/13 00:50:38;;;;;;;22.35;12.07;;;;;;;14.16;65.95;102454.31;4943565;28;118744;-70
2021/12/13 00:53:06;;;;;;;20.37;11.97;;;;;;;14.16;65.97;102449.00;4945175;28;123136;-70
2021/12/13 00:55:35;;;;;;;21.75;12.20;;;;;;;14.16;65.99;102453.44;4948448;28;123518;-69
2021/12/13 00:58:12;;;;;;;19.63;12.00;;;;;;;14.16;66.03;102464.13;4948482;28;118612;-69
2021/12/13 01:00:45;;;;;;;19.63;11.48;;;;;;;14.16;65.94;102459.66;4939280;28;119587;-70
2021/12/13 01:03:27;;;;;;;19.52;11.82;;;;;;;14.15;65.89;102457.91;4938585;28;123877;-69
2021/12/13 01:06:37;;;;;;;20.95;11.77;;;;;;;14.14;65.77;102455.31;4941662;28;123897;-69
2021/12/13 01:09:41;;;;;;;18.05;10.63;;;;;;;14.12;65.96;102457.16;4944132;28;119397;-69
2021/12/13 01:12:14;;;;;;;19.75;11.65;;;;;;;14.10;65.84;102454.53;4927468;28;118714;-69
2021/12/13 01:14:58;;;;;;;19.67;11.32;;;;;;;14.10;66.02;102454.53;4930783;28;124762;-70
2021/12/13 01:17:42;;;;;;;17.42;10.93;;;;;;;14.10;65.99;102465.19;4935749;28;124331;-69
2021/12/13 01:20:26;;;;;;;17.08;10.63;;;;;;;14.09;65.87;102468.78;4948424;28;120262;-69
2021/12/13 01:23:02;;;;;;;17.60;10.20;;;;;;;14.08;65.97;102477.69;4947270;28;120033;-70
2021/12/13 01:28:20;;;;;;;18.73;10.15;;;;;;;14.06;65.85;102463.56;4940929;28;123657;-69
2021/12/13 01:30:54;;;;;;;18.50;10.60;;;;;;;14.07;65.78;102470.66;4936052;28;119234;-69
2021/12/13 01:33:25;;;;;;;16.33;9.25;;;;;;;14.09;65.83;102474.13;4933205;28;118814;-69
2021/12/13 01:35:55;;;;;;;18.00;9.65;;;;;;;14.08;65.73;102477.69;4934370;28;123776;-70
2021/12/13 01:38:33;;;;;;;18.42;9.73;;;;;;;14.08;65.69;102483.03;4938562;28;124015;-69
2021/12/13 01:41:14;;;;;;;17.88;9.68;;;;;;;14.06;65.67;102482.22;4948418;28;121259;-70
2021/12/13 01:44:00;;;;;;;17.15;9.90;;;;;;;14.05;65.72;102477.78;4941006;28;118796;-69
2021/12/13 01:46:27;;;;;;;14.70;9.75;;;;;;;14.06;65.81;102479.53;4941204;28;124128;-70
2021/12/13 01:48:57;;;;;;;18.42;9.63;;;;;;;14.07;65.74;102480.41;4940960;28;123883;-70
2021/12/13 01:51:27;;;;;;;20.15;10.35;;;;;;;14.07;65.62;102481.31;4939685;28;120123;-69
2021/12/13 01:54:06;;;;;;;19.65;10.20;;;;;;;14.07;65.67;102481.31;4940677;28;119456;-69
2021/12/13 01:56:59;;;;;;;19.52;9.75;;;;;;;14.07;65.59;102491.97;4936790;28;125653;-69
2021/12/13 02:02:09;;;;;;;;;;;;;;;14.02;65.60;102483.25;4936593;28;119292;-69
2021/12/13 02:04:36;;;;;;;22.40;10.27;;;;;;;14.01;65.52;102470.81;4939358;28;119046;-69
2021/12/13 02:07:07;;;;;;;18.33;10.25;;;;;;;13.98;65.42;102486.94;4936280;28;123966;-69
2021/12/13 02:09:43;;;;;;;17.80;9.90;;;;;;;13.94;65.64;102487.97;4943009;28;123876;-69
2021/12/13 02:12:15;;;;;;;21.17;11.07;;;;;;;13.93;65.60;102488.88;4938737;28;120210;-69
2021/12/13 02:14:49;;;;;;;18.15;10.02;;;;;;;13.91;65.45;102486.25;4937738;28;119768;-69
2021/12/13 02:17:22;;;;;;;18.60;10.13;;;;;;;13.89;65.69;102481.91;4932538;28;124741;-69
2021/12/13 02:20:03;;;;;;;19.52;11.10;;;;;;;13.87;65.45;102489.06;4933053;28;123568;-69
2021/12/13 02:22:41;;;;;;;19.17;10.73;;;;;;;13.86;65.37;102482.00;4942317;28;119040;-69
2021/12/13 02:25:14;;;;;;;19.38;10.27;;;;;;;13.83;65.68;102475.84;4931176;28;118748;-69
2021/12/13 02:27:48;;;;;;;19.25;10.05;;;;;;;13.82;65.67;102475.88;4935205;28;123493;-69
2021/12/13 02:30:21;;;;;;;21.73;10.95;;;;;;;13.79;65.46;102482.19;4926106;28;122760;-69
2021/12/13 02:32:49;;;;;;;21.98;11.13;;;;;;;13.78;65.60;102480.44;4952895;28;119266;-69
2021/12/13 02:35:19;;;;;;;21.10;11.00;;;;;;;13.78;65.50;102484.91;4935551;28;118402;-69
2021/12/13 02:37:46;;;;;;;21.25;11.38;;;;;;;13.77;65.74;102488.50;4942057;28;124485;-69
2021/12/13 02:40:16;;;;;;;20.13;11.38;;;;;;;13.76;65.52;102479.63;4939558;28;123658;-69
2021/12/13 02:42:44;;;;;;;24.00;11.75;;;;;;;13.76;65.46;102487.63;4935509;28;119163;-69
2021/12/13 02:45:42;;;;;;;19.73;11.30;;;;;;;13.74;65.56;102489.44;4943390;28;118802;-70
2021/12/13 02:48:16;;;;;;;23.42;11.60;;;;;;;13.74;65.40;102496.59;4933211;28;124363;-69
2021/12/13 02:50:54;;;;;;;21.55;10.65;;;;;;;13.72;65.50;102495.75;4940915;28;124387;-69
2021/12/13 02:53:38;;;;;;;20.33;11.65;;;;;;;13.70;65.55;102503.78;4933801;28;118520;-70
2021/12/13 02:56:06;;;;;;;21.13;11.82;;;;;;;13.70;65.62;102508.25;4937087;28;118702;-69
2021/12/13 02:58:35;;;;;;;21.20;10.85;;;;;;;13.68;65.60;102500.31;4938306;28;123754;-69
2021/12/13 03:01:05;;;;;;;21.15;11.77;;;;;;;13.66;65.42;102493.31;4940674;28;124072;-69
2021/12/13 03:03:36;;;;;;;21.65;11.90;;;;;;;13.65;65.51;102487.09;4942525;28;120947;-69
2021/12/13 03:06:06;;;;;;;21.25;11.45;;;;;;;13.63;65.57;102486.25;4933389;28;120250;-69
2021/12/13 03:08:39;;;;;;;21.80;11.00;;;;;;;13.64;65.58;102488.03;4944796;28;125264;-69
2021/12/13 03:11:22;;;;;;;22.00;12.10;;;;;;;13.63;65.51;102480.94;4927201;28;124621;-69
2021/12/13 03:13:56;;;;;;;25.15;12.50;;;;;;;13.64;65.58;102477.38;4940023;28;119498;-69
2021/12/13 03:16:28;;;;;;;23.83;11.23;;;;;;;13.65;65.52;102479.09;4939835;28;119739;-70
2021/12/13 03:19:36;;;;;;;22.50;11.55;;;;;;;13.66;65.51;102480.84;4930732;28;124314;-70
2021/12/13 03:22:22;;;;;;;24.77;11.98;;;;;;;13.64;65.49;102477.38;4916125;28;124855;-69
2021/12/13 03:25:12;;;;;;;22.45;11.77;;;;;;;13.63;65.39;102491.59;4938671;28;119050;-69
2021/12/13 03:27:52;;;;;;;26.10;11.45;;;;;;;13.61;65.44;102488.97;4944808;28;119183;-70
2021/12/13 03:30:32;;;;;;;22.67;11.73;;;;;;;13.60;65.41;102492.56;4931413;28;123780;-69
2021/12/13 03:33:04;;;;;;;22.58;12.07;;;;;;;13.60;65.38;102497.03;4936110;28;123872;-70
2021/12/13 03:35:40;;;;;;;22.77;11.88;;;;;;;13.58;65.43;102496.19;4941381;28;120071;-69
2021/12/13 03:38:16;;;;;;;21.55;12.13;;;;;;;13.57;65.49;102502.44;4926374;28;117958;-69
2021/12/13 03:40:45;;;;;;;23.13;11.45;;;;;;;13.56;65.41;102495.34;4937294;28;124127;-70
2021/12/13 03:43:17;;;;;;;20.73;10.93;;;;;;;13.56;65.45;102495.34;4945031;28;124539;-69
2021/12/13 03:45:49;;;;;;;25.00;11.85;;;;;;;13.56;65.35;102500.69;4941942;28;119062;-69
2021/12/13 03:48:21;;;;;;;23.52;11.95;;;;;;;13.56;65.43;102500.69;4936944;28;118769;-69
2021/12/13 03:50:53;;;;;;;23.75;11.82;;;;;;;13.55;65.38;102504.28;4941648;28;124180;-69
2021/12/13 03:53:29;;;;;;;24.55;11.90;;;;;;;13.52;65.24;102499.03;4941942;28;124113;-69
2021/12/13 03:56:02;;;;;;;26.00;11.73;;;;;;;13.51;65.39;102497.31;4939554;28;120377;-69
2021/12/13 03:58:35;;;;;;;23.10;11.75;;;;;;;13.50;65.40;102496.41;4941236;28;120369;-70
2021/12/13 04:01:11;;;;;;;21.75;11.40;;;;;;;13.48;65.28;102492.06;4940947;28;124209;-69
2021/12/13 04:03:41;;;;;;;23.13;11.48;;;;;;;13.47;65.31;102500.97;4937369;28;123702;-69
2021/12/13 04:06:12;;;;;;;21.90;11.13;;;;;;;13.46;65.52;102501.88;4944051;28;119899;-69
2021/12/13 04:08:39;;;;;;;21.38;11.20;;;;;;;13.47;65.57;102495.63;4935489;28;119061;-69
2021/12/13 04:11:09;;;;;;;22.75;11.05;;;;;;;13.45;65.26;102503.69;4942539;28;123760;-69
2021/12/13 04:13:51;;;;;;;19.63;11.50;;;;;;;13.43;65.45;102501.06;4938953;28;123515;-69
2021/12/13 04:16:33;;;;;;;24.02;11.90;;;;;;;13.44;65.37;102496.59;4945401;28;120179;-69
2021/12/13 04:19:07;;;;;;;21.65;10.60;;;;;;;13.41;65.29;102502.91;4940944;28;119164;-69
2021/12/13 04:21:52;;;;;;;20.02;10.48;;;;;;;13.40;65.41;102501.16;4937969;28;123768;-69
2021/12/13 04:24:33;;;;;;;21.92;10.88;;;;;;;13.39;65.39;102499.44;4941984;28;123824;-69
2021/12/13 04:27:05;;;;;;;22.70;11.70;;;;;;;13.38;65.50;102508.31;4933985;28;118201;-69
2021/12/13 04:29:37;;;;;;;21.33;11.38;;;;;;;13.38;65.35;102508.31;4943517;28;118059;-69
2021/12/13 04:32:33;;;;;;;21.55;11.00;;;;;;;13.37;65.33;102503.94;4937027;28;123863;-69
2021/12/13 04:35:03;;;;;;;23.27;10.80;;;;;;;13.37;65.38;102501.25;4939789;28;123781;-69
2021/12/13 04:37:42;;;;;;;21.38;10.77;;;;;;;13.35;65.29;102505.72;4936355;28;119151;-69
2021/12/13 04:40:23;;;;;;;21.33;10.45;;;;;;;13.34;65.35;102509.34;4933745;28;118940;-69
2021/12/13 04:42:58;;;;;;;21.00;10.68;;;;;;;13.34;65.40;102506.66;4945767;28;123796;-69
2021/12/13 04:45:29;;;;;;;21.95;11.13;;;;;;;13.34;65.30;102512.00;4936662;28;124069;-69
2021/12/13 04:48:07;;;;;;;20.15;10.48;;;;;;;13.31;65.37;102506.75;4939637;28;120114;-69
2021/12/13 04:50:39;;;;;;;21.75;10.20;;;;;;;13.30;65.28;102505.03;4935539;28;119719;-69
2021/12/13 04:53:39;;;;;;;20.48;10.63;;;;;;;13.30;65.51;102502.34;4940999;28;123555;-69
2021/12/13 04:56:08;;;;;;;;;;;;;;;13.28;65.40;102511.25;4928687;28;124383;-69
2021/12/13 04:58:37;;;;;;;21.23;9.73;;;;;;;13.29;65.18;102513.88;4935152;28;119344;-69
2021/12/13 05:01:08;;;;;;;20.17;9.35;;;;;;;13.27;65.33;102507.72;4947120;28;118057;-69
2021/12/13 05:03:45;;;;;;;21.23;10.18;;;;;;;13.26;65.32;102514.00;4941672;28;123901;-69
2021/12/13 05:06:16;;;;;;;19.08;10.20;;;;;;;13.25;65.41;102517.56;4943234;28;123779;-69
2021/12/13 05:08:45;;;;;;;20.80;10.60;;;;;;;13.25;65.42;102512.22;4937831;28;118250;-69
2021/12/13 05:11:13;;;;;;;23.17;10.98;;;;;;;13.27;65.43;102515.72;4942573;28;118208;-69
2021/12/13 05:13:55;;;;;;;22.35;9.93;;;;;;;13.26;65.44;102508.66;4942915;28;124608;-69
2021/12/13 05:16:35;;;;;;;21.50;10.18;;;;;;;13.27;65.35;102510.38;4937754;28;123783;-69
2021/12/13 05:19:03;;;;;;;20.17;9.80;;;;;;;13.28;65.26;102505.94;4928461;28;118287;-69
2021/12/13 05:21:38;;;;;;;22.02;10.45;;;;;;;13.27;65.38;102510.38;4945891;28;118752;-69
2021/12/13 05:24:15;;;;;;;19.30;10.50;;;;;;;13.28;65.26;102506.81;4943061;28;124743;-69
2021/12/13 05:27:07;;;;;;;20.63;9.82;;;;;;;13.27;65.28;102513.06;4941494;28;123210;-69
2021/12/13 05:29:40;;;;;;;17.67;10.10;;;;;;;13.26;65.22;102514.00;4931271;28;118550;-69
2021/12/13 05:32:27;;;;;;;19.38;9.75;;;;;;;13.26;65.11;102514.00;4947670;28;119458;-69
2021/12/13 05:35:02;;;;;;;16.60;9.45;;;;;;;13.26;65.20;102511.31;4928631;28;122957;-69
2021/12/13 05:38:01;;;;;;;21.15;10.02;;;;;;;13.24;65.09;102518.44;4926953;28;123668;-69
2021/12/13 05:40:42;;;;;;;20.25;9.70;;;;;;;13.24;65.15;102518.44;4940003;28;119390;-69
2021/12/13 05:43:34;;;;;;;19.88;9.40;;;;;;;13.23;65.14;102519.38;4935374;28;122146;-69
2021/12/13 05:46:06;;;;;;;17.15;9.05;;;;;;;13.22;65.22;102517.63;4939593;28;124330;-70
2021/12/13 05:48:33;;;;;;;19.23;9.40;;;;;;;13.23;65.37;102514.06;4942624;28;124039;-69
2021/12/13 05:51:05;;;;;;;19.67;9.23;;;;;;;13.21;65.09;102511.44;4933213;28;120104;-69
2021/12/13 05:53:37;;;;;;;19.58;9.63;;;;;;;13.21;65.16;102521.22;4934252;28;118881;-69
2021/12/13 05:56:12;;;;;;;16.85;9.13;;;;;;;13.20;65.31;102524.78;4936307;28;123332;-69
2021/12/13 05:58:50;;;;;;;17.00;8.95;;;;;;;13.20;65.29;102520.34;4942699;28;124033;-69
2021/12/13 06:01:20;;;;;;;16.42;9.35;;;;;;;13.21;65.10;102521.22;4935753;28;119988;-69
2021/12/13 06:03:55;;;;;;;18.65;9.27;;;;;;;13.21;65.10;102518.56;4940952;28;118661;-69
2021/12/13 06:06:27;;;;;;;20.67;9.70;;;;;;;13.21;65.27;102515.91;4935045;28;124541;-69
2021/12/13 06:08:57;;;;;;;18.65;9.27;;;;;;;13.20;65.02;102519.47;4929978;28;123645;-69
2021/12/13 06:11:33;;;;;;;18.60;8.95;;;;;;;13.19;65.27;102517.72;4944855;28;119159;-69
2021/12/13 06:14:05;;;;;;;16.67;8.73;;;;;;;13.20;65.16;102524.78;4939733;28;118767;-69
2021/12/13 06:16:40;;;;;;;16.65;8.93;;;;;;;13.18;65.22;102526.63;4941612;28;124900;-69
2021/12/13 06:19:14;;;;;;;16.55;8.30;;;;;;;13.18;65.18;102527.47;4944778;28;124841;-69
2021/12/13 06:22:00;;;;;;;19.48;9.02;;;;;;;13.19;65.25;102528.38;4940893;28;119222;-69
2021/12/13 06:24:37;;;;;;;18.77;8.57;;;;;;;13.20;65.14;102530.09;4960915;28;117582;-69
2021/12/13 06:27:11;;;;;;;15.27;7.95;;;;;;;13.20;65.03;102530.09;4935461;28;124019;-69
2021/12/13 06:29:56;;;;;;;15.68;8.00;;;;;;;13.20;65.18;102530.09;4944521;28;123897;-69
2021/12/13 06:32:28;;;;;;;16.05;8.40;;;;;;;13.20;64.94;102538.09;4932567;28;120031;-69
2021/12/13 06:34:56;;;;;;;13.50;8.10;;;;;;;13.19;65.07;102539.03;4941537;28;119498;-69
2021/12/13 06:37:29;;;;;;;15.95;8.40;;;;;;;13.19;65.04;102539.03;4939424;28;124050;-69
2021/12/13 06:40:25;;;;;;;16.52;8.73;;;;;;;13.18;65.07;102547.91;4937183;28;123861;-69
2021/12/13 06:42:56;;;;;;;17.98;8.18;;;;;;;13.18;64.97;102534.59;4943407;28;119280;-70
2021/12/13 06:45:28;;;;;;;16.60;8.10;;;;;;;13.17;64.98;102541.72;4939472;28;118936;-69
2021/12/13 06:47:57;;;;;;;15.10;8.18;;;;;;;13.17;65.03;102548.84;4931025;28;123935;-69
2021/12/13 06:50:31;;;;;;;14.75;7.93;;;;;;;13.17;64.89;102546.19;4945707;28;123131;-69
2021/12/13 06:53:15;;;;;;;15.38;8.07;;;;;;;13.16;64.95;102547.06;4943658;28;119038;-70
2021/12/13 06:55:44;;;;;;;13.05;7.35;;;;;;;13.16;65.02;102544.41;4939428;28;119426;-70
2021/12/13 06:58:23;;;;;;;14.80;7.60;;;;;;;13.16;64.84;102544.41;4938310;28;124064;-69
2021/12/13 07:00:53;;;;;;;13.75;7.55;;;;;;;13.15;64.85;102548.00;4936465;28;124661;-70
2021/12/13 07:03:26;;;;;;;14.50;8.05;;;;;;;13.15;64.87;102553.34;4941641;28;119093;-70
2021/12/13 07:05:57;;;;;;;14.55;7.47;;;;;;;13.14;64.72;102551.56;4940853;28;118968;-69
2021/12/13 07:08:35;;;;;;;15.93;7.93;;;;;;;13.13;64.90;102557.78;4938981;28;124048;-70
2021/12/13 07:11:17;;;;;;;16.77;8.18;;;;;;;13.12;64.79;102550.75;4942243;28;125336;-69
2021/12/13 07:14:02;;;;;;;12.82;7.18;;;;;;;13.10;65.00;102556.09;4936268;28;119422;-70
2021/12/13 07:16:33;;;;;;;14.38;7.40;;;;;;;13.10;64.82;102555.25;4936845;28;118441;-70
2021/12/13 07:19:12;;;;;;;17.20;8.07;;;;;;;13.10;64.93;102571.19;4919236;28;122882;-69
2021/12/13 07:22:03;;;;;;;13.73;7.53;;;;;;;13.11;64.86;102562.28;4934088;28;124387;-69
2021/12/13 07:24:45;;;;;;;14.63;7.30;;;;;;;13.10;64.79;102560.56;4945011;28;120373;-69
2021/12/13 07:27:23;;;;;;;13.25;7.15;;;;;;;13.10;64.90;102571.19;4942165;28;119915;-69
2021/12/13 07:29:56;;;;;;;14.88;6.97;;;;;;;13.09;64.93;102574.75;4935201;28;123900;-69
2021/12/13 07:32:37;;;;;;;14.85;7.47;;;;;;;13.07;64.78;102577.47;4943542;28;124308;-69
2021/12/13 07:35:08;;;;;;;10.68;6.80;;;;;;;13.07;64.80;102581.91;4933171;28;119146;-69
2021/12/13 07:37:55;;;;;;;15.38;7.88;;;;;;;13.05;64.81;102580.19;4941439;28;119347;-70
2021/12/13 07:40:45;;;;;;;12.95;6.68;;;;;;;13.03;64.93;102587.34;4924545;28;124229;-70
2021/12/13 07:43:15;;;;;;;17.67;7.80;;;;;;;13.04;64.94;102583.75;4940984;28;124413;-69
2021/12/13 07:45:55;;;;;;;11.82;6.70;;;;;;;13.04;64.80;102583.75;4945801;28;119005;-70
2021/12/13 07:48:32;;;;;;;12.75;6.75;;;;;;;13.03;64.78;102587.34;4934572;28;119482;-70
2021/12/13 07:51:11;;;;;;;12.48;6.72;;;;;;;13.03;64.78;102592.66;4930131;28;121917;-70
2021/12/13 07:53:50;;;;;;;13.07;7.00;;;;;;;13.04;64.87;102594.38;4935408;28;123619;-71
2021/12/13 07:56:25;;;;;;;11.85;6.60;;;;;;;13.05;64.80;102600.56;4934709;28;119169;-70
2021/12/13 07:59:06;;;;;;;11.73;6.63;;;;;;;13.03;64.77;102608.63;4936484;28;119562;-70
2021/12/13 08:02:05;;;;;;;13.40;6.30;;;;;;;13.04;64.73;102605.03;4932253;28;124255;-70
2021/12/13 08:04:42;;;;;;;13.52;7.30;;;;;;;13.07;64.71;102605.84;4943486;28;123931;-70
2021/12/13 08:07:14;;;;;;;13.85;7.07;;;;;;;13.05;64.81;102605.88;4935685;28;119666;-70
2021/12/13 08:09:48;;;;;;;14.50;7.07;;;;;;;13.03;64.68;102603.31;4942379;28;118927;-70
2021/12/13 08:12:43;;;;;;;10.93;6.65;;;;;;;13.02;64.89;102598.88;4937552;28;123808;-70
2021/12/13 08:15:18;;;;;;;12.85;6.28;;;;;;;13.03;64.80;102607.72;4937715;28;123533;-70
2021/12/13 08:17:49;;;;;;;12.88;6.50;;;;;;;13.02;64.74;102606.84;4932922;28;120053;-70
2021/12/13 08:20:30;;;;;;;10.88;6.25;;;;;;;13.00;64.83;102595.41;4941356;28;120603;-70
2021/12/13 08:22:59;;;;;;;12.50;6.43;;;;;;;13.01;64.65;102597.13;4934958;28;124062;-70
2021/12/13 08:25:31;;;;;;;12.88;6.60;;;;;;;13.01;64.77;102596.25;4934928;28;123792;-70
2021/12/13 08:28:08;;;;;;;12.48;7.00;;;;;;;13.01;64.80;102602.44;4935226;28;119365;-70
2021/12/13 08:30:43;;;;;;;13.23;6.10;;;;;;;13.02;64.81;102606.84;4944960;28;118898;-70
2021/12/13 08:33:13;;;;;;;12.40;6.07;;;;;;;13.02;64.95;102596.22;4946798;28;123785;-70
2021/12/13 08:35:57;;;;;;;10.98;6.03;;;;;;;13.02;64.82;102601.53;4947385;28;123727;-70
2021/12/13 08:38:29;;;;;;;12.25;5.97;;;;;;;13.04;64.64;102607.69;4929103;28;118348;-70
2021/12/13 08:41:02;;;;;;;16.35;6.30;;;;;;;13.05;64.84;102616.53;4945796;28;118866;-70
2021/12/13 08:43:43;;;;;;;10.98;6.30;;;;;;;13.05;64.85;102606.78;4945256;28;124047;-70
2021/12/13 08:46:23;;;;;;;11.52;6.05;;;;;;;13.08;64.98;102604.97;4927826;28;123652;-70
2021/12/13 08:48:51;;;;;;;12.18;6.20;;;;;;;13.08;64.83;102604.97;4926288;28;119177;-70
2021/12/13 08:51:25;;;;;;;10.32;6.38;;;;;;;13.10;64.79;102603.13;4927084;28;118767;-70
2021/12/13 08:54:10;;;;;;;11.98;6.03;;;;;;;13.10;64.80;102613.75;4926181;28;124284;-70
2021/12/13 08:56:45;;;;;;;9.70;5.80;;;;;;;13.11;64.85;102612.84;4924755;28;123892;-70
2021/12/13 08:59:23;;;;;;;10.63;5.90;;;;;;;13.12;64.96;102617.25;4926241;28;119170;-70
2021/12/13 09:02:01;;;;;;;12.80;5.90;;;;;;;13.12;64.82;102610.13;4926680;28;118955;-70
2021/12/13 09:04:33;;;;;;;11.90;6.05;;;;;;;13.13;65.02;102608.34;4927637;28;124025;-70
2021/12/13 09:07:04;;;;;;;9.98;5.30;;;;;;;13.15;64.81;102611.88;4925813;28;123789;-70
2021/12/13 09:09:33;;;;;;;9.88;5.63;;;;;;;13.15;64.87;102612.72;4925885;28;120712;-70
2021/12/13 09:12:07;;;;;;;9.32;5.55;;;;;;;13.16;64.73;102614.44;4923561;28;119263;-69
2021/12/13 09:14:42;;;;;;;10.27;5.45;;;;;;;13.15;64.73;102612.72;4935211;28;124685;-70
2021/12/13 09:17:16;;;;;;;9.55;5.72;;;;;;;13.15;64.77;102617.19;4946636;28;124197;-70
2021/12/13 09:20:04;;;;;;;9.55;5.25;;;;;;;13.15;64.66;102617.19;4944513;28;119094;-70
2021/12/13 09:22:33;;;;;;;10.13;5.22;;;;;;;13.16;64.81;102624.22;4944618;28;118056;-70
2021/12/13 09:25:30;;;;;;;11.05;5.60;;;;;;;13.16;64.77;102632.22;4946781;28;124750;-70
2021/12/13 09:28:01;;;;;;;8.90;5.18;;;;;;;13.18;64.77;102638.38;4944974;28;124185;-70
2021/12/13 09:30:49;;;;;;;9.20;5.38;;;;;;;13.18;64.86;102633.03;4946498;28;119336;-70
2021/12/13 09:33:21;;;;;;;9.38;5.45;;;;;;;13.20;64.81;102641.84;4945182;28;117897;-70
2021/12/13 09:35:55;;;;;;;9.98;5.32;;;;;;;13.20;64.74;102641.84;4948379;28;123360;-70
2021/12/13 09:38:44;;;;;;;10.93;4.93;;;;;;;13.22;64.60;102645.34;4956623;28;125078;-70
2021/12/13 09:41:27;;;;;;;8.65;4.95;;;;;;;13.22;64.71;102650.66;4958048;28;118738;-70
2021/12/13 09:44:00;;;;;;;10.20;4.93;;;;;;;13.23;64.67;102652.41;4966392;28;119860;-70
2021/12/13 09:46:45;;;;;;;10.35;5.63;;;;;;;13.24;64.77;102654.16;4961452;28;123633;-70
2021/12/13 09:49:30;;;;;;;8.68;4.70;;;;;;;13.26;64.74;102652.34;4948793;28;123311;-70
2021/12/13 09:52:13;;;;;;;7.63;4.28;;;;;;;13.28;64.75;102658.50;4947171;28;119266;-70
2021/12/13 09:54:53;;;;;;;10.77;5.07;;;;;;;13.29;64.57;102668.22;4938411;28;118760;-70
2021/12/13 09:57:25;;;;;;;9.65;5.18;;;;;;;13.29;64.57;102670.88;4936994;28;123022;-70
2021/12/13 10:00:41;;;;;;;8.60;4.95;;;;;;;13.29;64.50;102668.22;4932816;28;123534;-71
2021/12/13 10:03:17;;;;;;;11.80;4.88;;;;;;;13.29;64.47;102668.22;4923704;28;119142;-70
2021/12/13 10:05:50;;;;;;;9.30;4.78;;;;;;;13.30;64.51;102670.00;4927178;28;120628;-70
2021/12/13 10:08:25;;;;;;;7.63;4.53;;;;;;;13.30;64.42;102670.00;4928589;28;124124;-70
2021/12/13 10:11:06;;;;;;;7.60;4.95;;;;;;;13.29;64.54;102673.53;4928958;28;123775;-70
2021/12/13 10:13:37;;;;;;;7.05;4.68;;;;;;;13.32;64.50;102670.84;4928241;28;119940;-70
2021/12/13 10:16:08;;;;;;;8.50;4.97;;;;;;;13.32;64.48;102668.19;4927980;28;118772;-70
2021/12/13 10:18:41;;;;;;;9.18;5.82;;;;;;;13.33;64.27;102666.38;4937934;28;124617;-70
2021/12/13 10:21:16;;;;;;;10.45;5.95;;;;;;;13.31;64.47;102668.22;4927974;28;124602;-70
2021/12/13 10:23:48;;;;;;;12.88;7.43;;;;;;;13.31;64.36;102666.41;4930522;28;119186;-70
2021/12/13 10:26:32;;;;;;;12.40;7.93;;;;;;;13.33;64.46;102658.41;4941424;28;119133;-70
2021/12/13 10:29:02;;;;;;;14.52;8.20;;;;;;;13.34;64.29;102665.47;4941360;28;123882;-70
2021/12/13 10:31:48;;;;;;;14.57;8.48;;;;;;;13.34;64.30;102663.69;4942596;28;124216;-70
2021/12/13 10:34:20;;;;;;;13.10;7.68;;;;;;;13.35;64.45;102657.44;4938042;28;119092;-70
2021/12/13 10:36:56;;;;;;;12.13;6.70;;;;;;;13.37;64.24;102658.28;4938002;28;119423;-70
2021/12/13 10:39:29;;;;;;;11.02;6.05;;;;;;;13.36;64.09;102658.31;4930264;28;124713;-70
2021/12/13 10:42:14;;;;;;;9.38;5.55;;;;;;;13.36;64.41;102659.19;4927457;28;122815;-70
2021/12/13 10:44:44;;;;;;;8.43;4.88;;;;;;;13.36;64.31;102656.53;4928969;28;118986;-70
2021/12/13 10:47:18;;;;;;;6.60;4.50;;;;;;;13.37;64.30;102660.94;4929850;28;120109;-70
2021/12/13 10:49:48;;;;;;;6.72;4.20;;;;;;;13.39;64.33;102658.22;4926566;28;124386;-73
2021/12/13 10:52:21;;;;;;;7.00;4.38;;;;;;;13.38;64.32;102657.34;4929114;28;124568;-70
2021/12/13 10:54:54;;;;;;;6.47;3.90;;;;;;;13.39;64.18;102653.78;4928382;28;120356;-71
2021/12/13 10:57:27;;;;;;;8.77;3.60;;;;;;;13.40;64.32;102650.19;4929301;28;119747;-71
2021/12/13 10:59:55;;;;;;;7.40;4.30;;;;;;;13.42;64.25;102659.00;4927172;28;123611;-71
2021/12/13 11:02:34;;;;;;;7.28;4.03;;;;;;;13.43;64.19;102651.91;4927480;28;124585;-71
2021/12/13 11:05:17;;;;;;;8.48;3.85;;;;;;;13.44;64.20;102657.16;4927909;28;119629;-71
2021/12/13 11:07:44;;;;;;;5.93;3.80;;;;;;;13.46;64.23;102658.94;4948725;28;118959;-71
2021/12/13 11:10:17;;;;;;;6.75;4.10;;;;;;;13.48;64.15;102651.78;4946640;28;123108;-70
2021/12/13 11:12:48;;;;;;;6.05;3.70;;;;;;;13.48;63.96;102662.44;4948441;28;124838;-70
2021/12/13 11:15:29;;;;;;;6.45;3.50;;;;;;;13.47;63.92;102655.34;4947679;28;119814;-70
2021/12/13 11:17:58;;;;;;;6.10;3.33;;;;;;;13.47;63.98;102655.34;4948249;28;119667;-70
2021/12/13 11:20:35;;;;;;;8.10;3.58;;;;;;;13.46;64.10;102654.47;4946367;28;123509;-70
2021/12/13 11:23:03;;;;;;;5.50;3.30;;;;;;;13.46;63.89;102642.97;4948300;28;123433;-71
2021/12/13 11:25:36;;;;;;;7.57;3.90;;;;;;;13.47;64.03;102644.69;4948481;28;120711;-71
2021/12/13 11:28:04;;;;;;;6.00;3.67;;;;;;;13.49;63.85;102648.22;4947773;28;118875;-71
2021/12/13 11:30:35;;;;;;;5.95;3.40;;;;;;;13.50;63.93;102639.28;4947861;28;123726;-71
2021/12/13 11:33:20;;;;;;;5.40;3.50;;;;;;;13.50;63.98;102639.28;4948204;28;124824;-70
2021/12/13 11:36:06;;;;;;;4.93;3.23;;;;;;;13.51;63.88;102646.38;4946886;28;119122;-73
2021/12/13 11:39:11;;;;;;;6.10;3.58;;;;;;;13.50;63.78;102649.94;4948684;28;118692;-72
2021/12/13 11:41:53;;;;;;;6.03;3.50;;;;;;;13.49;63.83;102654.41;4937804;28;124680;-71
2021/12/13 11:44:29;;;;;;;4.57;3.10;;;;;;;13.48;63.78;102646.44;4935262;28;124571;-71
2021/12/13 11:47:29;;;;;;;4.90;3.35;;;;;;;13.49;63.89;102648.22;4938296;28;120372;-71
2021/12/13 11:50:24;;;;;;;5.65;3.25;;;;;;;13.49;63.77;102648.22;4929097;28;118977;-71
2021/12/13 11:53:18;;;;;;;5.53;3.22;;;;;;;13.49;63.84;102648.22;4929723;28;124199;-71
2021/12/13 11:56:19;;;;;;;5.38;3.30;;;;;;;13.51;63.81;102646.38;4933366;28;123921;-71